sensor_id;sensor_type;location;lat;lon;timestamp;P1;durP1;ratioP1;P2;durP2;ratioP2
67816;SDS011;54614;47.576;7.524;2023-07-20T00:01:46;1.20;;;1.20;;
67816;SDS011;54614;47.576;7.524;2023-07-20T00:04:13;1.27;;;1.27;;
67816;SDS011;54614;47.576;7.524;2023-07-20T00:06:39;1.48;;;1.38;;
67816;SDS011;54614;47.576;7.524;2023-07-20T00:09:08;1.17;;;1.13;;
67816;SDS011;54614;47.576;7.524;2023-07-20T00:11:37;1.23;;;1.20;;
67816;SDS011;54614;47.576;7.524;2023-07-20T00:14:04;1.40;;;1.30;;
67816;SDS011;54614;47.576;7.524;2023-07-20T00:16:31;1.45;;;1.35;;
67816;SDS011;54614;47.576;7.524;2023-07-20T00:18:57;1.10;;;1.10;;
67816;SDS011;54614;47.576;7.524;2023-07-20T00:21:23;1.15;;;1.05;;
67816;SDS011;54614;47.576;7.524;2023-07-20T00:23:49;1.30;;;1.20;;
67816;SDS011;54614;47.576;7.524;2023-07-20T00:26:15;1.10;;;1.10;;
67816;SDS011;54614;47.576;7.524;2023-07-20T00:28:40;1.10;;;1.10;;
67816;SDS011;54614;47.576;7.524;2023-07-20T00:31:06;1.30;;;1.20;;
67816;SDS011;54614;47.576;7.524;2023-07-20T00:33:32;1.10;;;1.10;;
67816;SDS011;54614;47.576;7.524;2023-07-20T00:35:57;1.52;;;1.20;;
67816;SDS011;54614;47.576;7.524;2023-07-20T00:38:23;1.10;;;1.10;;
67816;SDS011;54614;47.576;7.524;2023-07-20T00:40:49;2.45;;;1.20;;
67816;SDS011;54614;47.576;7.524;2023-07-20T00:43:15;1.10;;;1.10;;
67816;SDS011;54614;47.576;7.524;2023-07-20T00:45:41;1.10;;;1.10;;
67816;SDS011;54614;47.576;7.524;2023-07-20T00:48:08;1.25;;;1.25;;
67816;SDS011;54614;47.576;7.524;2023-07-20T00:50:34;1.27;;;1.17;;
67816;SDS011;54614;47.576;7.524;2023-07-20T00:53:00;1.10;;;1.10;;
67816;SDS011;54614;47.576;7.524;2023-07-20T00:55:32;1.10;;;1.10;;
67816;SDS011;54614;47.576;7.524;2023-07-20T00:57:59;1.10;;;1.10;;
67816;SDS011;54614;47.576;7.524;2023-07-20T01:00:25;1.00;;;1.00;;
67816;SDS011;54614;47.576;7.524;2023-07-20T01:02:52;0.98;;;0.98;;
67816;SDS011;54614;47.576;7.524;2023-07-20T01:05:18;1.02;;;1.02;;
67816;SDS011;54614;47.576;7.524;2023-07-20T01:07:49;1.05;;;1.05;;
67816;SDS011;54614;47.576;7.524;2023-07-20T01:13:03;1.00;;;1.00;;
67816;SDS011;54614;47.576;7.524;2023-07-20T01:15:33;0.98;;;0.98;;
67816;SDS011;54614;47.576;7.524;2023-07-20T01:17:59;1.10;;;1.10;;
67816;SDS011;54614;47.576;7.524;2023-07-20T01:20:30;1.10;;;1.10;;
67816;SDS011;54614;47.576;7.524;2023-07-20T01:23:22;1.30;;;1.20;;
67816;SDS011;54614;47.576;7.524;2023-07-20T01:29:16;1.35;;;1.25;;
67816;SDS011;54614;47.576;7.524;2023-07-20T01:32:07;1.00;;;1.00;;
67816;SDS011;54614;47.576;7.524;2023-07-20T01:34:35;1.20;;;1.20;;
67816;SDS011;54614;47.576;7.524;2023-07-20T01:37:03;1.10;;;1.00;;
67816;SDS011;54614;47.576;7.524;2023-07-20T01:39:31;1.10;;;1.10;;
67816;SDS011;54614;47.576;7.524;2023-07-20T01:41:58;1.05;;;1.05;;
67816;SDS011;54614;47.576;7.524;2023-07-20T01:44:24;1.00;;;1.00;;
67816;SDS011;54614;47.576;7.524;2023-07-20T01:46:50;1.00;;;1.00;;
67816;SDS011;54614;47.576;7.524;2023-07-20T01:49:16;1.00;;;1.00;;
67816;SDS011;54614;47.576;7.524;2023-07-20T01:51:41;1.00;;;1.00;;
67816;SDS011;54614;47.576;7.524;2023-07-20T01:54:07;1.15;;;1.15;;
67816;SDS011;54614;47.576;7.524;2023-07-20T01:56:33;1.10;;;1.10;;
67816;SDS011;54614;47.576;7.524;2023-07-20T01:58:59;1.00;;;1.00;;
67816;SDS011;54614;47.576;7.524;2023-07-20T02:01:25;0.90;;;0.90;;
67816;SDS011;54614;47.576;7.524;2023-07-20T02:03:53;1.10;;;1.10;;
67816;SDS011;54614;47.576;7.524;2023-07-20T02:06:19;1.20;;;1.20;;
67816;SDS011;54614;47.576;7.524;2023-07-20T02:08:45;1.05;;;1.05;;
67816;SDS011;54614;47.576;7.524;2023-07-20T02:11:11;0.95;;;0.95;;
67816;SDS011;54614;47.576;7.524;2023-07-20T02:13:37;1.42;;;0.90;;
67816;SDS011;54614;47.576;7.524;2023-07-20T02:16:02;1.20;;;1.20;;
67816;SDS011;54614;47.576;7.524;2023-07-20T02:18:29;1.00;;;1.00;;
67816;SDS011;54614;47.576;7.524;2023-07-20T02:20:55;1.02;;;1.02;;
67816;SDS011;54614;47.576;7.524;2023-07-20T02:23:20;1.13;;;1.10;;
67816;SDS011;54614;47.576;7.524;2023-07-20T02:25:46;1.10;;;1.10;;
67816;SDS011;54614;47.576;7.524;2023-07-20T02:28:13;1.08;;;1.08;;
67816;SDS011;54614;47.576;7.524;2023-07-20T02:30:40;1.00;;;1.00;;
67816;SDS011;54614;47.576;7.524;2023-07-20T02:33:06;0.98;;;0.98;;
67816;SDS011;54614;47.576;7.524;2023-07-20T02:35:32;1.05;;;1.05;;
67816;SDS011;54614;47.576;7.524;2023-07-20T02:37:58;0.80;;;0.80;;
67816;SDS011;54614;47.576;7.524;2023-07-20T02:40:24;1.00;;;1.00;;
67816;SDS011;54614;47.576;7.524;2023-07-20T02:42:50;1.00;;;1.00;;
67816;SDS011;54614;47.576;7.524;2023-07-20T02:45:16;0.90;;;0.90;;
67816;SDS011;54614;47.576;7.524;2023-07-20T02:47:42;1.08;;;1.08;;
67816;SDS011;54614;47.576;7.524;2023-07-20T02:50:08;1.00;;;1.00;;
67816;SDS011;54614;47.576;7.524;2023-07-20T02:52:34;1.42;;;1.00;;
67816;SDS011;54614;47.576;7.524;2023-07-20T02:55:00;1.00;;;1.00;;
67816;SDS011;54614;47.576;7.524;2023-07-20T02:57:25;0.90;;;0.90;;
67816;SDS011;54614;47.576;7.524;2023-07-20T02:59:52;1.20;;;1.10;;
67816;SDS011;54614;47.576;7.524;2023-07-20T03:02:18;0.95;;;0.95;;
67816;SDS011;54614;47.576;7.524;2023-07-20T03:04:44;0.95;;;0.95;;
67816;SDS011;54614;47.576;7.524;2023-07-20T03:07:10;1.15;;;1.10;;
67816;SDS011;54614;47.576;7.524;2023-07-20T03:09:35;0.88;;;0.88;;
67816;SDS011;54614;47.576;7.524;2023-07-20T03:12:01;1.25;;;0.90;;
67816;SDS011;54614;47.576;7.524;2023-07-20T03:14:29;0.98;;;0.98;;
67816;SDS011;54614;47.576;7.524;2023-07-20T03:16:55;0.77;;;0.77;;
67816;SDS011;54614;47.576;7.524;2023-07-20T03:19:21;1.15;;;1.15;;
67816;SDS011;54614;47.576;7.524;2023-07-20T03:21:47;1.00;;;1.00;;
67816;SDS011;54614;47.576;7.524;2023-07-20T03:24:13;1.10;;;1.10;;
67816;SDS011;54614;47.576;7.524;2023-07-20T03:26:39;0.90;;;0.90;;
67816;SDS011;54614;47.576;7.524;2023-07-20T03:29:04;0.90;;;0.90;;
67816;SDS011;54614;47.576;7.524;2023-07-20T03:31:31;0.90;;;0.90;;
67816;SDS011;54614;47.576;7.524;2023-07-20T03:33:57;1.35;;;1.25;;
67816;SDS011;54614;47.576;7.524;2023-07-20T03:36:23;2.97;;;1.20;;
67816;SDS011;54614;47.576;7.524;2023-07-20T03:38:49;2.40;;;1.60;;
67816;SDS011;54614;47.576;7.524;2023-07-20T03:41:15;3.63;;;1.75;;
67816;SDS011;54614;47.576;7.524;2023-07-20T03:43:41;1.98;;;1.70;;
67816;SDS011;54614;47.576;7.524;2023-07-20T03:46:07;3.40;;;1.60;;
67816;SDS011;54614;47.576;7.524;2023-07-20T03:48:33;2.00;;;1.73;;
67816;SDS011;54614;47.576;7.524;2023-07-20T03:50:59;3.47;;;1.80;;
67816;SDS011;54614;47.576;7.524;2023-07-20T03:53:25;3.78;;;1.90;;
67816;SDS011;54614;47.576;7.524;2023-07-20T03:55:51;3.20;;;1.60;;
67816;SDS011;54614;47.576;7.524;2023-07-20T03:58:18;2.97;;;1.90;;
67816;SDS011;54614;47.576;7.524;2023-07-20T04:00:48;1.67;;;1.58;;
67816;SDS011;54614;47.576;7.524;2023-07-20T04:03:15;5.93;;;2.10;;
67816;SDS011;54614;47.576;7.524;2023-07-20T04:05:45;3.72;;;2.15;;
67816;SDS011;54614;47.576;7.524;2023-07-20T04:08:11;4.55;;;1.73;;
67816;SDS011;54614;47.576;7.524;2023-07-20T04:10:37;10.02;;;1.95;;
67816;SDS011;54614;47.576;7.524;2023-07-20T04:13:04;3.83;;;1.70;;
67816;SDS011;54614;47.576;7.524;2023-07-20T04:15:30;2.50;;;2.10;;
67816;SDS011;54614;47.576;7.524;2023-07-20T04:17:56;4.00;;;1.90;;
67816;SDS011;54614;47.576;7.524;2023-07-20T04:20:23;2.13;;;1.83;;
67816;SDS011;54614;47.576;7.524;2023-07-20T04:22:49;4.40;;;1.70;;
67816;SDS011;54614;47.576;7.524;2023-07-20T04:25:15;4.22;;;1.70;;
67816;SDS011;54614;47.576;7.524;2023-07-20T04:27:42;2.30;;;2.00;;
67816;SDS011;54614;47.576;7.524;2023-07-20T04:30:08;4.47;;;2.20;;
67816;SDS011;54614;47.576;7.524;2023-07-20T04:32:36;4.13;;;2.07;;
67816;SDS011;54614;47.576;7.524;2023-07-20T04:35:06;3.00;;;2.05;;
67816;SDS011;54614;47.576;7.524;2023-07-20T04:37:35;4.68;;;1.90;;
67816;SDS011;54614;47.576;7.524;2023-07-20T04:40:01;2.28;;;1.67;;
67816;SDS011;54614;47.576;7.524;2023-07-20T04:42:27;3.92;;;1.80;;
67816;SDS011;54614;47.576;7.524;2023-07-20T04:44:52;6.57;;;2.00;;
67816;SDS011;54614;47.576;7.524;2023-07-20T04:47:18;2.30;;;1.90;;
67816;SDS011;54614;47.576;7.524;2023-07-20T04:49:44;2.45;;;1.88;;
67816;SDS011;54614;47.576;7.524;2023-07-20T04:52:10;5.68;;;2.00;;
67816;SDS011;54614;47.576;7.524;2023-07-20T04:54:36;2.25;;;1.90;;
67816;SDS011;54614;47.576;7.524;2023-07-20T04:57:01;2.50;;;1.88;;
67816;SDS011;54614;47.576;7.524;2023-07-20T04:59:27;3.88;;;1.83;;
67816;SDS011;54614;47.576;7.524;2023-07-20T05:01:53;3.72;;;1.80;;
67816;SDS011;54614;47.576;7.524;2023-07-20T05:04:19;5.22;;;1.90;;
67816;SDS011;54614;47.576;7.524;2023-07-20T05:06:44;4.65;;;1.67;;
67816;SDS011;54614;47.576;7.524;2023-07-20T05:09:10;4.15;;;1.80;;
67816;SDS011;54614;47.576;7.524;2023-07-20T05:11:36;3.22;;;1.83;;
67816;SDS011;54614;47.576;7.524;2023-07-20T05:14:02;5.85;;;1.58;;
67816;SDS011;54614;47.576;7.524;2023-07-20T05:16:28;4.35;;;1.80;;
67816;SDS011;54614;47.576;7.524;2023-07-20T05:18:53;4.55;;;1.60;;
67816;SDS011;54614;47.576;7.524;2023-07-20T05:21:19;4.18;;;1.63;;
67816;SDS011;54614;47.576;7.524;2023-07-20T05:23:45;1.65;;;1.55;;
67816;SDS011;54614;47.576;7.524;2023-07-20T05:26:11;1.85;;;1.60;;
67816;SDS011;54614;47.576;7.524;2023-07-20T05:28:36;3.15;;;1.67;;
67816;SDS011;54614;47.576;7.524;2023-07-20T05:31:02;3.70;;;1.60;;
67816;SDS011;54614;47.576;7.524;2023-07-20T05:33:28;3.03;;;1.70;;
67816;SDS011;54614;47.576;7.524;2023-07-20T05:35:54;2.90;;;1.70;;
67816;SDS011;54614;47.576;7.524;2023-07-20T05:38:20;2.70;;;1.60;;
67816;SDS011;54614;47.576;7.524;2023-07-20T05:40:46;2.17;;;1.40;;
67816;SDS011;54614;47.576;7.524;2023-07-20T05:43:12;2.28;;;1.33;;
67816;SDS011;54614;47.576;7.524;2023-07-20T05:45:41;2.83;;;1.75;;
67816;SDS011;54614;47.576;7.524;2023-07-20T05:48:08;1.58;;;1.48;;
67816;SDS011;54614;47.576;7.524;2023-07-20T05:50:36;2.10;;;1.48;;
67816;SDS011;54614;47.576;7.524;2023-07-20T05:53:11;1.75;;;1.40;;
67816;SDS011;54614;47.576;7.524;2023-07-20T05:55:37;2.45;;;1.40;;
67816;SDS011;54614;47.576;7.524;2023-07-20T05:58:04;1.70;;;1.60;;
67816;SDS011;54614;47.576;7.524;2023-07-20T06:00:30;2.47;;;1.60;;
67816;SDS011;54614;47.576;7.524;2023-07-20T06:02:55;2.45;;;1.67;;
67816;SDS011;54614;47.576;7.524;2023-07-20T06:05:22;4.15;;;1.60;;
67816;SDS011;54614;47.576;7.524;2023-07-20T06:07:48;1.80;;;1.70;;
67816;SDS011;54614;47.576;7.524;2023-07-20T06:10:15;2.22;;;1.65;;
67816;SDS011;54614;47.576;7.524;2023-07-20T06:12:41;1.73;;;1.60;;
67816;SDS011;54614;47.576;7.524;2023-07-20T06:15:23;2.80;;;1.30;;
67816;SDS011;54614;47.576;7.524;2023-07-20T06:18:01;1.52;;;1.40;;
67816;SDS011;54614;47.576;7.524;2023-07-20T06:20:28;2.50;;;1.40;;
67816;SDS011;54614;47.576;7.524;2023-07-20T06:22:55;3.08;;;1.67;;
67816;SDS011;54614;47.576;7.524;2023-07-20T06:25:21;2.40;;;1.63;;
67816;SDS011;54614;47.576;7.524;2023-07-20T06:27:48;1.88;;;1.50;;
67816;SDS011;54614;47.576;7.524;2023-07-20T06:30:18;1.60;;;1.50;;
67816;SDS011;54614;47.576;7.524;2023-07-20T06:32:44;1.58;;;1.48;;
67816;SDS011;54614;47.576;7.524;2023-07-20T06:35:10;1.83;;;1.42;;
67816;SDS011;54614;47.576;7.524;2023-07-20T06:37:36;1.50;;;1.40;;
67816;SDS011;54614;47.576;7.524;2023-07-20T06:40:02;1.73;;;1.40;;
67816;SDS011;54614;47.576;7.524;2023-07-20T06:42:29;1.85;;;1.70;;
67816;SDS011;54614;47.576;7.524;2023-07-20T06:44:56;1.65;;;1.40;;
67816;SDS011;54614;47.576;7.524;2023-07-20T06:47:22;1.60;;;1.50;;
67816;SDS011;54614;47.576;7.524;2023-07-20T06:49:48;2.25;;;1.50;;
67816;SDS011;54614;47.576;7.524;2023-07-20T06:52:14;1.52;;;1.40;;
67816;SDS011;54614;47.576;7.524;2023-07-20T06:54:40;1.50;;;1.30;;
67816;SDS011;54614;47.576;7.524;2023-07-20T06:57:06;1.60;;;1.40;;
67816;SDS011;54614;47.576;7.524;2023-07-20T06:59:32;1.60;;;1.50;;
67816;SDS011;54614;47.576;7.524;2023-07-20T07:01:57;1.45;;;1.35;;
67816;SDS011;54614;47.576;7.524;2023-07-20T07:04:23;3.67;;;1.27;;
67816;SDS011;54614;47.576;7.524;2023-07-20T07:06:49;1.50;;;1.40;;
67816;SDS011;54614;47.576;7.524;2023-07-20T07:09:14;1.40;;;1.30;;
67816;SDS011;54614;47.576;7.524;2023-07-20T07:11:40;1.70;;;1.40;;
67816;SDS011;54614;47.576;7.524;2023-07-20T07:14:06;1.40;;;1.30;;
67816;SDS011;54614;47.576;7.524;2023-07-20T07:16:32;1.35;;;1.30;;
67816;SDS011;54614;47.576;7.524;2023-07-20T07:18:58;1.58;;;1.13;;
67816;SDS011;54614;47.576;7.524;2023-07-20T07:21:24;1.70;;;1.48;;
67816;SDS011;54614;47.576;7.524;2023-07-20T07:23:50;1.67;;;1.30;;
67816;SDS011;54614;47.576;7.524;2023-07-20T07:26:18;1.77;;;1.20;;
67816;SDS011;54614;47.576;7.524;2023-07-20T07:28:44;1.85;;;1.52;;
67816;SDS011;54614;47.576;7.524;2023-07-20T07:31:10;1.50;;;1.40;;
67816;SDS011;54614;47.576;7.524;2023-07-20T07:33:36;1.60;;;1.50;;
67816;SDS011;54614;47.576;7.524;2023-07-20T07:36:02;1.60;;;1.30;;
67816;SDS011;54614;47.576;7.524;2023-07-20T07:38:28;1.50;;;1.40;;
67816;SDS011;54614;47.576;7.524;2023-07-20T07:40:54;1.40;;;1.30;;
67816;SDS011;54614;47.576;7.524;2023-07-20T07:43:19;1.73;;;1.30;;
67816;SDS011;54614;47.576;7.524;2023-07-20T07:45:45;1.38;;;1.27;;
67816;SDS011;54614;47.576;7.524;2023-07-20T07:48:11;1.50;;;1.40;;
67816;SDS011;54614;47.576;7.524;2023-07-20T07:50:37;1.42;;;1.33;;
67816;SDS011;54614;47.576;7.524;2023-07-20T07:53:05;1.30;;;1.20;;
67816;SDS011;54614;47.576;7.524;2023-07-20T07:55:32;1.40;;;1.30;;
67816;SDS011;54614;47.576;7.524;2023-07-20T07:57:58;1.50;;;1.40;;
67816;SDS011;54614;47.576;7.524;2023-07-20T08:00:23;1.65;;;1.20;;
67816;SDS011;54614;47.576;7.524;2023-07-20T08:02:51;1.38;;;1.27;;
67816;SDS011;54614;47.576;7.524;2023-07-20T08:05:17;1.58;;;1.48;;
67816;SDS011;54614;47.576;7.524;2023-07-20T08:07:43;1.60;;;1.50;;
67816;SDS011;54614;47.576;7.524;2023-07-20T08:10:09;3.17;;;1.05;;
67816;SDS011;54614;47.576;7.524;2023-07-20T08:12:35;1.63;;;1.52;;
67816;SDS011;54614;47.576;7.524;2023-07-20T08:15:01;1.92;;;1.30;;
67816;SDS011;54614;47.576;7.524;2023-07-20T08:17:27;1.38;;;1.27;;
67816;SDS011;54614;47.576;7.524;2023-07-20T08:19:53;1.50;;;1.40;;
67816;SDS011;54614;47.576;7.524;2023-07-20T08:22:18;1.40;;;1.30;;
67816;SDS011;54614;47.576;7.524;2023-07-20T08:24:44;1.48;;;1.30;;
67816;SDS011;54614;47.576;7.524;2023-07-20T08:27:10;1.35;;;1.33;;
67816;SDS011;54614;47.576;7.524;2023-07-20T08:29:36;1.60;;;1.38;;
67816;SDS011;54614;47.576;7.524;2023-07-20T08:32:03;1.48;;;1.38;;
67816;SDS011;54614;47.576;7.524;2023-07-20T08:34:30;1.27;;;1.20;;
67816;SDS011;54614;47.576;7.524;2023-07-20T08:36:56;1.20;;;1.13;;
67816;SDS011;54614;47.576;7.524;2023-07-20T08:39:23;2.60;;;1.20;;
67816;SDS011;54614;47.576;7.524;2023-07-20T08:41:49;1.23;;;1.23;;
67816;SDS011;54614;47.576;7.524;2023-07-20T08:44:19;1.55;;;1.40;;
67816;SDS011;54614;47.576;7.524;2023-07-20T08:46:45;1.50;;;1.40;;
67816;SDS011;54614;47.576;7.524;2023-07-20T08:49:13;1.30;;;1.15;;
67816;SDS011;54614;47.576;7.524;2023-07-20T08:51:43;1.30;;;1.20;;
67816;SDS011;54614;47.576;7.524;2023-07-20T08:54:11;1.55;;;1.30;;
67816;SDS011;54614;47.576;7.524;2023-07-20T08:56:39;1.48;;;1.38;;
67816;SDS011;54614;47.576;7.524;2023-07-20T08:59:10;1.20;;;1.20;;
67816;SDS011;54614;47.576;7.524;2023-07-20T09:01:41;1.20;;;1.20;;
67816;SDS011;54614;47.576;7.524;2023-07-20T09:04:10;1.42;;;1.33;;
67816;SDS011;54614;47.576;7.524;2023-07-20T09:06:37;1.17;;;1.15;;
67816;SDS011;54614;47.576;7.524;2023-07-20T09:09:03;1.50;;;1.40;;
67816;SDS011;54614;47.576;7.524;2023-07-20T09:11:30;1.33;;;1.20;;
67816;SDS011;54614;47.576;7.524;2023-07-20T09:14:08;1.50;;;1.30;;
67816;SDS011;54614;47.576;7.524;2023-07-20T09:16:48;1.15;;;1.15;;
67816;SDS011;54614;47.576;7.524;2023-07-20T09:19:18;1.27;;;1.23;;
67816;SDS011;54614;47.576;7.524;2023-07-20T09:21:45;1.30;;;1.20;;
67816;SDS011;54614;47.576;7.524;2023-07-20T09:24:16;2.00;;;1.23;;
67816;SDS011;54614;47.576;7.524;2023-07-20T09:26:45;1.42;;;1.33;;
67816;SDS011;54614;47.576;7.524;2023-07-20T09:29:13;1.30;;;1.20;;
67816;SDS011;54614;47.576;7.524;2023-07-20T09:31:43;1.33;;;1.23;;
67816;SDS011;54614;47.576;7.524;2023-07-20T09:34:23;1.10;;;1.10;;
67816;SDS011;54614;47.576;7.524;2023-07-20T09:36:49;1.40;;;1.30;;
67816;SDS011;54614;47.576;7.524;2023-07-20T09:39:17;1.17;;;1.17;;
67816;SDS011;54614;47.576;7.524;2023-07-20T09:41:43;2.15;;;1.20;;
67816;SDS011;54614;47.576;7.524;2023-07-20T09:44:10;1.30;;;1.20;;
67816;SDS011;54614;47.576;7.524;2023-07-20T09:46:43;1.20;;;1.20;;
67816;SDS011;54614;47.576;7.524;2023-07-20T09:49:11;2.08;;;1.40;;
67816;SDS011;54614;47.576;7.524;2023-07-20T09:51:37;1.48;;;1.38;;
67816;SDS011;54614;47.576;7.524;2023-07-20T09:54:04;1.65;;;1.42;;
67816;SDS011;54614;47.576;7.524;2023-07-20T09:56:31;1.35;;;1.23;;
67816;SDS011;54614;47.576;7.524;2023-07-20T09:58:59;1.27;;;1.20;;
67816;SDS011;54614;47.576;7.524;2023-07-20T10:01:25;1.15;;;1.15;;
67816;SDS011;54614;47.576;7.524;2023-07-20T10:03:54;1.35;;;1.25;;
67816;SDS011;54614;47.576;7.524;2023-07-20T10:06:26;1.30;;;1.20;;
67816;SDS011;54614;47.576;7.524;2023-07-20T10:09:00;1.13;;;1.13;;
67816;SDS011;54614;47.576;7.524;2023-07-20T10:11:32;1.30;;;1.20;;
67816;SDS011;54614;47.576;7.524;2023-07-20T10:14:04;1.30;;;1.20;;
67816;SDS011;54614;47.576;7.524;2023-07-20T10:16:32;1.50;;;1.40;;
67816;SDS011;54614;47.576;7.524;2023-07-20T10:19:05;1.10;;;1.10;;
67816;SDS011;54614;47.576;7.524;2023-07-20T10:21:40;1.20;;;1.20;;
67816;SDS011;54614;47.576;7.524;2023-07-20T10:24:13;1.17;;;1.17;;
67816;SDS011;54614;47.576;7.524;2023-07-20T10:26:41;1.58;;;1.30;;
67816;SDS011;54614;47.576;7.524;2023-07-20T10:29:07;1.20;;;1.20;;
67816;SDS011;54614;47.576;7.524;2023-07-20T10:31:34;1.40;;;1.30;;
67816;SDS011;54614;47.576;7.524;2023-07-20T10:34:03;1.40;;;1.30;;
67816;SDS011;54614;47.576;7.524;2023-07-20T10:36:29;1.30;;;1.23;;
67816;SDS011;54614;47.576;7.524;2023-07-20T10:38:56;1.35;;;1.25;;
67816;SDS011;54614;47.576;7.524;2023-07-20T10:41:27;1.80;;;1.40;;
67816;SDS011;54614;47.576;7.524;2023-07-20T10:43:58;1.10;;;1.10;;
67816;SDS011;54614;47.576;7.524;2023-07-20T10:49:03;1.20;;;1.10;;
67816;SDS011;54614;47.576;7.524;2023-07-20T10:52:05;2.17;;;1.20;;
67816;SDS011;54614;47.576;7.524;2023-07-20T10:56:51;1.38;;;1.27;;
67816;SDS011;54614;47.576;7.524;2023-07-20T10:59:20;1.25;;;1.20;;
67816;SDS011;54614;47.576;7.524;2023-07-20T11:02:08;1.10;;;1.10;;
67816;SDS011;54614;47.576;7.524;2023-07-20T11:07:08;1.20;;;1.20;;
67816;SDS011;54614;47.576;7.524;2023-07-20T11:09:35;1.23;;;1.20;;
67816;SDS011;54614;47.576;7.524;2023-07-20T11:12:09;1.15;;;1.15;;
67816;SDS011;54614;47.576;7.524;2023-07-20T11:14:43;1.40;;;1.30;;
67816;SDS011;54614;47.576;7.524;2023-07-20T11:17:21;1.25;;;1.15;;
67816;SDS011;54614;47.576;7.524;2023-07-20T11:19:58;1.13;;;1.13;;
67816;SDS011;54614;47.576;7.524;2023-07-20T11:22:26;1.33;;;1.27;;
67816;SDS011;54614;47.576;7.524;2023-07-20T11:24:56;1.08;;;1.08;;
67816;SDS011;54614;47.576;7.524;2023-07-20T11:27:23;1.30;;;1.20;;
67816;SDS011;54614;47.576;7.524;2023-07-20T11:29:49;1.15;;;1.05;;
67816;SDS011;54614;47.576;7.524;2023-07-20T11:32:21;1.00;;;1.00;;
67816;SDS011;54614;47.576;7.524;2023-07-20T11:34:50;1.25;;;1.20;;
67816;SDS011;54614;47.576;7.524;2023-07-20T11:37:16;1.13;;;1.13;;
67816;SDS011;54614;47.576;7.524;2023-07-20T11:39:46;1.30;;;1.20;;
67816;SDS011;54614;47.576;7.524;2023-07-20T11:42:12;1.10;;;1.10;;
67816;SDS011;54614;47.576;7.524;2023-07-20T11:44:38;1.10;;;1.10;;
67816;SDS011;54614;47.576;7.524;2023-07-20T11:47:07;1.17;;;1.17;;
67816;SDS011;54614;47.576;7.524;2023-07-20T11:49:37;1.10;;;1.10;;
67816;SDS011;54614;47.576;7.524;2023-07-20T11:52:07;1.13;;;1.13;;
67816;SDS011;54614;47.576;7.524;2023-07-20T11:54:37;1.67;;;1.20;;
67816;SDS011;54614;47.576;7.524;2023-07-20T11:57:04;1.10;;;1.10;;
67816;SDS011;54614;47.576;7.524;2023-07-20T11:59:31;1.30;;;1.20;;
67816;SDS011;54614;47.576;7.524;2023-07-20T12:02:06;1.17;;;1.17;;
67816;SDS011;54614;47.576;7.524;2023-07-20T12:04:32;0.98;;;0.98;;
67816;SDS011;54614;47.576;7.524;2023-07-20T12:06:58;1.30;;;1.20;;
67816;SDS011;54614;47.576;7.524;2023-07-20T12:09:24;0.98;;;0.98;;
67816;SDS011;54614;47.576;7.524;2023-07-20T12:11:50;1.10;;;1.10;;
67816;SDS011;54614;47.576;7.524;2023-07-20T12:14:16;1.00;;;1.00;;
67816;SDS011;54614;47.576;7.524;2023-07-20T12:16:42;1.40;;;1.30;;
67816;SDS011;54614;47.576;7.524;2023-07-20T12:19:10;1.05;;;1.05;;
67816;SDS011;54614;47.576;7.524;2023-07-20T12:21:38;1.25;;;1.20;;
67816;SDS011;54614;47.576;7.524;2023-07-20T12:24:07;1.10;;;1.10;;
67816;SDS011;54614;47.576;7.524;2023-07-20T12:26:35;1.20;;;1.20;;
67816;SDS011;54614;47.576;7.524;2023-07-20T12:29:01;1.38;;;1.30;;
67816;SDS011;54614;47.576;7.524;2023-07-20T12:31:29;1.33;;;1.00;;
67816;SDS011;54614;47.576;7.524;2023-07-20T12:33:56;1.20;;;1.20;;
67816;SDS011;54614;47.576;7.524;2023-07-20T12:36:23;1.20;;;1.05;;
67816;SDS011;54614;47.576;7.524;2023-07-20T12:38:50;1.30;;;1.20;;
67816;SDS011;54614;47.576;7.524;2023-07-20T12:41:16;1.10;;;1.10;;
67816;SDS011;54614;47.576;7.524;2023-07-20T12:43:42;1.00;;;1.00;;
67816;SDS011;54614;47.576;7.524;2023-07-20T12:46:12;1.10;;;1.10;;
67816;SDS011;54614;47.576;7.524;2023-07-20T12:48:38;1.20;;;1.20;;
67816;SDS011;54614;47.576;7.524;2023-07-20T12:51:07;1.20;;;1.20;;
67816;SDS011;54614;47.576;7.524;2023-07-20T12:53:34;1.20;;;1.20;;
67816;SDS011;54614;47.576;7.524;2023-07-20T12:56:00;1.05;;;1.00;;
67816;SDS011;54614;47.576;7.524;2023-07-20T12:58:26;1.00;;;1.00;;
67816;SDS011;54614;47.576;7.524;2023-07-20T13:00:52;1.33;;;1.23;;
67816;SDS011;54614;47.576;7.524;2023-07-20T13:03:19;0.90;;;0.90;;
67816;SDS011;54614;47.576;7.524;2023-07-20T13:05:47;1.30;;;1.20;;
67816;SDS011;54614;47.576;7.524;2023-07-20T13:08:14;1.25;;;1.05;;
67816;SDS011;54614;47.576;7.524;2023-07-20T13:10:40;1.00;;;1.00;;
67816;SDS011;54614;47.576;7.524;2023-07-20T13:13:07;1.10;;;1.10;;
67816;SDS011;54614;47.576;7.524;2023-07-20T13:15:40;1.08;;;1.08;;
67816;SDS011;54614;47.576;7.524;2023-07-20T13:18:09;1.10;;;1.10;;
67816;SDS011;54614;47.576;7.524;2023-07-20T13:20:35;1.10;;;1.10;;
67816;SDS011;54614;47.576;7.524;2023-07-20T13:23:01;1.15;;;1.15;;
67816;SDS011;54614;47.576;7.524;2023-07-20T13:25:27;1.40;;;1.30;;
67816;SDS011;54614;47.576;7.524;2023-07-20T13:27:53;1.10;;;1.10;;
67816;SDS011;54614;47.576;7.524;2023-07-20T13:30:19;1.08;;;1.08;;
67816;SDS011;54614;47.576;7.524;2023-07-20T13:32:46;1.10;;;1.10;;
67816;SDS011;54614;47.576;7.524;2023-07-20T13:35:12;1.20;;;1.10;;
67816;SDS011;54614;47.576;7.524;2023-07-20T13:37:38;1.27;;;1.17;;
67816;SDS011;54614;47.576;7.524;2023-07-20T13:40:04;1.33;;;1.23;;
67816;SDS011;54614;47.576;7.524;2023-07-20T13:42:32;1.10;;;1.10;;
67816;SDS011;54614;47.576;7.524;2023-07-20T13:44:58;1.02;;;1.02;;
67816;SDS011;54614;47.576;7.524;2023-07-20T13:47:24;1.10;;;1.10;;
67816;SDS011;54614;47.576;7.524;2023-07-20T13:49:51;1.00;;;1.00;;
67816;SDS011;54614;47.576;7.524;2023-07-20T13:52:16;0.93;;;0.93;;
67816;SDS011;54614;47.576;7.524;2023-07-20T13:54:42;1.23;;;1.20;;
67816;SDS011;54614;47.576;7.524;2023-07-20T13:57:08;1.85;;;1.10;;
67816;SDS011;54614;47.576;7.524;2023-07-20T13:59:34;1.10;;;1.10;;
67816;SDS011;54614;47.576;7.524;2023-07-20T14:02:00;1.35;;;1.20;;
67816;SDS011;54614;47.576;7.524;2023-07-20T14:04:26;1.20;;;1.20;;
67816;SDS011;54614;47.576;7.524;2023-07-20T14:06:52;1.00;;;1.00;;
67816;SDS011;54614;47.576;7.524;2023-07-20T14:09:18;1.10;;;1.08;;
67816;SDS011;54614;47.576;7.524;2023-07-20T14:11:43;0.90;;;0.90;;
67816;SDS011;54614;47.576;7.524;2023-07-20T14:14:09;1.30;;;1.20;;
67816;SDS011;54614;47.576;7.524;2023-07-20T14:16:35;1.17;;;1.17;;
67816;SDS011;54614;47.576;7.524;2023-07-20T14:19:01;1.20;;;1.13;;
67816;SDS011;54614;47.576;7.524;2023-07-20T14:21:27;1.02;;;1.02;;
67816;SDS011;54614;47.576;7.524;2023-07-20T14:23:53;1.20;;;1.20;;
67816;SDS011;54614;47.576;7.524;2023-07-20T14:26:19;1.02;;;1.00;;
67816;SDS011;54614;47.576;7.524;2023-07-20T14:28:45;0.95;;;0.95;;
67816;SDS011;54614;47.576;7.524;2023-07-20T14:31:11;0.90;;;0.90;;
67816;SDS011;54614;47.576;7.524;2023-07-20T14:33:37;1.08;;;1.08;;
67816;SDS011;54614;47.576;7.524;2023-07-20T14:36:03;0.93;;;0.93;;
67816;SDS011;54614;47.576;7.524;2023-07-20T14:38:30;1.10;;;1.10;;
67816;SDS011;54614;47.576;7.524;2023-07-20T14:40:57;1.15;;;1.10;;
67816;SDS011;54614;47.576;7.524;2023-07-20T14:43:23;1.13;;;1.00;;
67816;SDS011;54614;47.576;7.524;2023-07-20T14:45:48;1.10;;;1.10;;
67816;SDS011;54614;47.576;7.524;2023-07-20T14:48:14;1.02;;;1.02;;
67816;SDS011;54614;47.576;7.524;2023-07-20T14:50:40;1.05;;;1.05;;
67816;SDS011;54614;47.576;7.524;2023-07-20T14:53:06;1.00;;;1.00;;
67816;SDS011;54614;47.576;7.524;2023-07-20T14:55:32;1.10;;;1.10;;
67816;SDS011;54614;47.576;7.524;2023-07-20T14:57:58;1.30;;;1.20;;
67816;SDS011;54614;47.576;7.524;2023-07-20T15:00:24;1.10;;;1.10;;
67816;SDS011;54614;47.576;7.524;2023-07-20T15:02:50;1.00;;;1.00;;